This is the latest recevied weather packets stored in our database for station/object DL6JOE-10. If no packets are shown the sender has not sent any weather packets the latest 10 day(s).
| Time | Temp. | Humidity | Pressure | Rain* | Wind** | Luminosity | Snow |
|---|---|---|---|---|---|---|---|
| 1788246769 | 18.33° C | 52% | 968.6 hPa | - | - | - | - |
| 1788245869 | 17.78° C | 53% | 968.5 hPa | - | - | - | - |
| 1788244969 | 17.78° C | 53% | 968.5 hPa | - | - | - | - |
| 1788244068 | 17.22° C | 53% | 968.5 hPa | - | - | - | - |
| 1788243168 | 17.22° C | 52% | 968.6 hPa | - | - | - | - |
| 1788242268 | 17.22° C | 52% | 968.5 hPa | - | - | - | - |
| 1788241368 | 17.22° C | 53% | 968.4 hPa | - | - | - | - |
| 1788240468 | 17.22° C | 53% | 968.3 hPa | - | - | - | - |
| 1788239568 | 17.22° C | 53% | 968.3 hPa | - | - | - | - |
| 1788238668 | 17.22° C | 53% | 968.3 hPa | - | - | - | - |
| 1788237768 | 17.22° C | 54% | 968.3 hPa | - | - | - | - |
| 1788236868 | 17.22° C | 54% | 968.2 hPa | - | - | - | - |
| 1788235968 | 17.22° C | 54% | 968.2 hPa | - | - | - | - |
| 1788215266 | 21.11° C | 44% | 967.7 hPa | - | - | - | - |
| 1788210765 | 22.22° C | 43% | 967.1 hPa | - | - | - | - |
| 1788208965 | 22.22° C | 42% | 967.1 hPa | - | - | - | - |
| 1788208065 | 22.78° C | 42% | 966.9 hPa | - | - | - | - |
| 1788207165 | 22.78° C | 42% | 966.8 hPa | - | - | - | - |
| 1788206265 | 23.33° C | 42% | 966.6 hPa | - | - | - | - |
| 1788204464 | 23.89° C | 41% | 966.5 hPa | - | - | - | - |
| 1788203564 | 24.44° C | 40% | 966.3 hPa | - | - | - | - |
| 1788200864 | 25.56° C | 38% | 965.2 hPa | - | - | - | - |
| 1788199964 | 26.11° C | 37% | 964.8 hPa | - | - | - | - |
| 1788198163 | 27.22° C | 35% | 964.6 hPa | - | - | - | - |
| 1788197263 | 27.78° C | 34% | 964.4 hPa | - | - | - | - |
* Rain since midnight (hover to see other rain measurements)
** Current wind speed in m/s (hover to see current wind gust speed)